sensor_id;sensor_type;location;lat;lon;timestamp;P1;durP1;ratioP1;P2;durP2;ratioP2
23080;SDS011;11708;50.570;8.532;2023-03-19T00:02:24;15.48;;;8.32;;
23080;SDS011;11708;50.570;8.532;2023-03-19T00:04:50;15.55;;;8.25;;
23080;SDS011;11708;50.570;8.532;2023-03-19T00:07:15;13.55;;;8.80;;
23080;SDS011;11708;50.570;8.532;2023-03-19T00:09:42;12.40;;;9.10;;
23080;SDS011;11708;50.570;8.532;2023-03-19T00:12:08;13.95;;;8.32;;
23080;SDS011;11708;50.570;8.532;2023-03-19T00:14:35;11.68;;;8.25;;
23080;SDS011;11708;50.570;8.532;2023-03-19T00:17:01;13.15;;;8.32;;
23080;SDS011;11708;50.570;8.532;2023-03-19T00:19:27;13.05;;;8.52;;
23080;SDS011;11708;50.570;8.532;2023-03-19T00:21:53;12.00;;;8.95;;
23080;SDS011;11708;50.570;8.532;2023-03-19T00:24:20;14.45;;;8.68;;
23080;SDS011;11708;50.570;8.532;2023-03-19T00:26:46;12.35;;;8.30;;
23080;SDS011;11708;50.570;8.532;2023-03-19T00:29:12;13.63;;;8.30;;
23080;SDS011;11708;50.570;8.532;2023-03-19T00:31:39;13.38;;;8.32;;
23080;SDS011;11708;50.570;8.532;2023-03-19T00:34:05;13.10;;;8.40;;
23080;SDS011;11708;50.570;8.532;2023-03-19T00:36:32;15.35;;;8.40;;
23080;SDS011;11708;50.570;8.532;2023-03-19T00:38:58;10.90;;;7.60;;
23080;SDS011;11708;50.570;8.532;2023-03-19T00:41:23;11.85;;;8.40;;
23080;SDS011;11708;50.570;8.532;2023-03-19T00:43:52;13.02;;;8.32;;
23080;SDS011;11708;50.570;8.532;2023-03-19T00:46:19;12.02;;;8.27;;
23080;SDS011;11708;50.570;8.532;2023-03-19T00:48:45;13.63;;;8.65;;
23080;SDS011;11708;50.570;8.532;2023-03-19T00:51:10;13.23;;;8.27;;
23080;SDS011;11708;50.570;8.532;2023-03-19T00:53:37;14.10;;;8.63;;
23080;SDS011;11708;50.570;8.532;2023-03-19T00:56:04;12.13;;;8.68;;
23080;SDS011;11708;50.570;8.532;2023-03-19T00:58:31;13.57;;;8.88;;
23080;SDS011;11708;50.570;8.532;2023-03-19T01:00:58;13.45;;;8.75;;
23080;SDS011;11708;50.570;8.532;2023-03-19T01:03:24;12.43;;;9.32;;
23080;SDS011;11708;50.570;8.532;2023-03-19T01:05:50;17.50;;;9.80;;
23080;SDS011;11708;50.570;8.532;2023-03-19T01:08:16;11.35;;;7.82;;
23080;SDS011;11708;50.570;8.532;2023-03-19T01:10:42;16.40;;;9.10;;
23080;SDS011;11708;50.570;8.532;2023-03-19T01:13:08;13.75;;;8.63;;
23080;SDS011;11708;50.570;8.532;2023-03-19T01:15:37;15.50;;;9.02;;
23080;SDS011;11708;50.570;8.532;2023-03-19T01:18:05;13.27;;;9.02;;
23080;SDS011;11708;50.570;8.532;2023-03-19T01:20:31;13.60;;;8.90;;
23080;SDS011;11708;50.570;8.532;2023-03-19T01:22:57;12.70;;;9.43;;
23080;SDS011;11708;50.570;8.532;2023-03-19T01:25:25;16.13;;;8.80;;
23080;SDS011;11708;50.570;8.532;2023-03-19T01:27:51;12.85;;;8.57;;
23080;SDS011;11708;50.570;8.532;2023-03-19T01:30:17;15.50;;;8.63;;
23080;SDS011;11708;50.570;8.532;2023-03-19T01:32:43;13.18;;;8.70;;
23080;SDS011;11708;50.570;8.532;2023-03-19T01:35:08;14.85;;;9.35;;
23080;SDS011;11708;50.570;8.532;2023-03-19T01:37:34;18.17;;;10.40;;
23080;SDS011;11708;50.570;8.532;2023-03-19T01:40:00;14.13;;;9.10;;
23080;SDS011;11708;50.570;8.532;2023-03-19T01:42:27;17.67;;;9.63;;
23080;SDS011;11708;50.570;8.532;2023-03-19T01:44:52;12.82;;;9.35;;
23080;SDS011;11708;50.570;8.532;2023-03-19T01:47:24;17.05;;;9.73;;
23080;SDS011;11708;50.570;8.532;2023-03-19T01:49:55;13.43;;;10.43;;
23080;SDS011;11708;50.570;8.532;2023-03-19T01:52:22;14.55;;;11.10;;
23080;SDS011;11708;50.570;8.532;2023-03-19T01:54:51;19.23;;;10.27;;
23080;SDS011;11708;50.570;8.532;2023-03-19T01:57:17;13.68;;;9.88;;
23080;SDS011;11708;50.570;8.532;2023-03-19T01:59:52;19.05;;;10.57;;
23080;SDS011;11708;50.570;8.532;2023-03-19T02:02:26;13.50;;;9.73;;
23080;SDS011;11708;50.570;8.532;2023-03-19T02:05:00;16.17;;;9.77;;
23080;SDS011;11708;50.570;8.532;2023-03-19T02:07:30;16.55;;;9.63;;
23080;SDS011;11708;50.570;8.532;2023-03-19T02:09:58;13.00;;;9.95;;
23080;SDS011;11708;50.570;8.532;2023-03-19T02:12:27;17.40;;;10.25;;
23080;SDS011;11708;50.570;8.532;2023-03-19T02:14:52;15.75;;;9.57;;
23080;SDS011;11708;50.570;8.532;2023-03-19T02:17:19;18.48;;;9.95;;
23080;SDS011;11708;50.570;8.532;2023-03-19T02:19:52;15.52;;;10.40;;
23080;SDS011;11708;50.570;8.532;2023-03-19T02:22:27;16.80;;;10.40;;
23080;SDS011;11708;50.570;8.532;2023-03-19T02:27:23;15.98;;;10.27;;
23080;SDS011;11708;50.570;8.532;2023-03-19T02:29:48;15.40;;;10.68;;
23080;SDS011;11708;50.570;8.532;2023-03-19T02:32:14;18.38;;;11.65;;
23080;SDS011;11708;50.570;8.532;2023-03-19T02:34:40;15.35;;;10.45;;
23080;SDS011;11708;50.570;8.532;2023-03-19T02:37:12;16.52;;;10.77;;
23080;SDS011;11708;50.570;8.532;2023-03-19T02:40:00;14.20;;;10.18;;
23080;SDS011;11708;50.570;8.532;2023-03-19T02:42:36;16.02;;;10.40;;
23080;SDS011;11708;50.570;8.532;2023-03-19T02:45:02;15.75;;;10.50;;
23080;SDS011;11708;50.570;8.532;2023-03-19T02:47:28;15.60;;;9.88;;
23080;SDS011;11708;50.570;8.532;2023-03-19T02:49:53;18.92;;;10.70;;
23080;SDS011;11708;50.570;8.532;2023-03-19T02:52:19;15.05;;;10.30;;
23080;SDS011;11708;50.570;8.532;2023-03-19T02:54:45;14.65;;;9.75;;
23080;SDS011;11708;50.570;8.532;2023-03-19T02:57:11;15.10;;;10.10;;
23080;SDS011;11708;50.570;8.532;2023-03-19T02:59:36;15.82;;;10.30;;
23080;SDS011;11708;50.570;8.532;2023-03-19T03:02:03;17.42;;;9.38;;
23080;SDS011;11708;50.570;8.532;2023-03-19T03:07:51;14.63;;;10.00;;
23080;SDS011;11708;50.570;8.532;2023-03-19T03:10:17;14.40;;;9.80;;
23080;SDS011;11708;50.570;8.532;2023-03-19T03:12:43;13.43;;;9.18;;
23080;SDS011;11708;50.570;8.532;2023-03-19T03:15:08;14.73;;;10.13;;
23080;SDS011;11708;50.570;8.532;2023-03-19T03:17:38;17.77;;;9.77;;
23080;SDS011;11708;50.570;8.532;2023-03-19T03:20:04;16.23;;;9.07;;
23080;SDS011;11708;50.570;8.532;2023-03-19T03:22:31;14.30;;;9.48;;
23080;SDS011;11708;50.570;8.532;2023-03-19T03:24:57;14.60;;;9.30;;
23080;SDS011;11708;50.570;8.532;2023-03-19T03:27:23;15.70;;;9.93;;
23080;SDS011;11708;50.570;8.532;2023-03-19T03:29:48;17.20;;;11.40;;
23080;SDS011;11708;50.570;8.532;2023-03-19T03:32:14;15.10;;;8.85;;
23080;SDS011;11708;50.570;8.532;2023-03-19T03:34:40;13.57;;;9.77;;
23080;SDS011;11708;50.570;8.532;2023-03-19T03:37:06;15.75;;;9.10;;
23080;SDS011;11708;50.570;8.532;2023-03-19T03:39:31;15.43;;;9.75;;
23080;SDS011;11708;50.570;8.532;2023-03-19T03:41:57;15.25;;;9.15;;
23080;SDS011;11708;50.570;8.532;2023-03-19T03:44:24;13.45;;;9.35;;
23080;SDS011;11708;50.570;8.532;2023-03-19T03:46:50;16.02;;;10.23;;
23080;SDS011;11708;50.570;8.532;2023-03-19T03:49:15;15.15;;;9.48;;
23080;SDS011;11708;50.570;8.532;2023-03-19T03:51:41;12.57;;;9.35;;
23080;SDS011;11708;50.570;8.532;2023-03-19T03:54:06;13.43;;;9.95;;
23080;SDS011;11708;50.570;8.532;2023-03-19T03:56:32;13.18;;;9.85;;
23080;SDS011;11708;50.570;8.532;2023-03-19T03:58:58;19.80;;;10.02;;
23080;SDS011;11708;50.570;8.532;2023-03-19T04:01:25;13.23;;;10.30;;
23080;SDS011;11708;50.570;8.532;2023-03-19T04:03:51;13.57;;;9.43;;
23080;SDS011;11708;50.570;8.532;2023-03-19T04:06:18;13.85;;;9.82;;
23080;SDS011;11708;50.570;8.532;2023-03-19T04:08:45;14.85;;;9.80;;
23080;SDS011;11708;50.570;8.532;2023-03-19T04:11:11;16.42;;;10.15;;
23080;SDS011;11708;50.570;8.532;2023-03-19T04:13:37;19.27;;;11.60;;
23080;SDS011;11708;50.570;8.532;2023-03-19T04:16:03;15.18;;;9.60;;
23080;SDS011;11708;50.570;8.532;2023-03-19T04:18:33;14.38;;;9.68;;
23080;SDS011;11708;50.570;8.532;2023-03-19T04:21:00;19.25;;;10.68;;
23080;SDS011;11708;50.570;8.532;2023-03-19T04:23:27;14.65;;;10.23;;
23080;SDS011;11708;50.570;8.532;2023-03-19T04:25:57;15.38;;;10.20;;
23080;SDS011;11708;50.570;8.532;2023-03-19T04:28:27;18.55;;;10.40;;
23080;SDS011;11708;50.570;8.532;2023-03-19T04:31:00;14.15;;;10.38;;
23080;SDS011;11708;50.570;8.532;2023-03-19T04:33:26;17.00;;;9.77;;
23080;SDS011;11708;50.570;8.532;2023-03-19T04:35:53;14.63;;;9.18;;
23080;SDS011;11708;50.570;8.532;2023-03-19T04:38:21;14.10;;;9.85;;
23080;SDS011;11708;50.570;8.532;2023-03-19T04:40:47;12.52;;;8.75;;
23080;SDS011;11708;50.570;8.532;2023-03-19T04:43:13;12.65;;;9.10;;
23080;SDS011;11708;50.570;8.532;2023-03-19T04:45:39;16.17;;;9.23;;
23080;SDS011;11708;50.570;8.532;2023-03-19T04:48:05;11.50;;;8.45;;
23080;SDS011;11708;50.570;8.532;2023-03-19T04:50:31;13.27;;;9.07;;
23080;SDS011;11708;50.570;8.532;2023-03-19T04:52:58;12.90;;;8.60;;
23080;SDS011;11708;50.570;8.532;2023-03-19T04:55:24;14.25;;;8.75;;
23080;SDS011;11708;50.570;8.532;2023-03-19T04:57:50;14.18;;;8.70;;
23080;SDS011;11708;50.570;8.532;2023-03-19T05:00:16;13.73;;;8.35;;
23080;SDS011;11708;50.570;8.532;2023-03-19T05:02:41;17.25;;;9.25;;
23080;SDS011;11708;50.570;8.532;2023-03-19T05:05:08;11.60;;;9.18;;
23080;SDS011;11708;50.570;8.532;2023-03-19T05:07:36;14.40;;;8.80;;
23080;SDS011;11708;50.570;8.532;2023-03-19T05:10:02;11.18;;;8.00;;
23080;SDS011;11708;50.570;8.532;2023-03-19T05:12:29;10.73;;;7.85;;
23080;SDS011;11708;50.570;8.532;2023-03-19T05:14:55;12.27;;;8.88;;
23080;SDS011;11708;50.570;8.532;2023-03-19T05:17:21;11.50;;;8.52;;
23080;SDS011;11708;50.570;8.532;2023-03-19T05:19:47;13.25;;;8.55;;
23080;SDS011;11708;50.570;8.532;2023-03-19T05:22:13;12.52;;;8.52;;
23080;SDS011;11708;50.570;8.532;2023-03-19T05:24:38;13.93;;;8.88;;
23080;SDS011;11708;50.570;8.532;2023-03-19T05:27:04;16.60;;;9.10;;
23080;SDS011;11708;50.570;8.532;2023-03-19T05:29:29;13.88;;;8.98;;
23080;SDS011;11708;50.570;8.532;2023-03-19T05:31:55;12.07;;;8.63;;
23080;SDS011;11708;50.570;8.532;2023-03-19T05:34:20;15.35;;;9.00;;
23080;SDS011;11708;50.570;8.532;2023-03-19T05:36:46;14.45;;;9.10;;
23080;SDS011;11708;50.570;8.532;2023-03-19T05:39:12;12.27;;;8.48;;
23080;SDS011;11708;50.570;8.532;2023-03-19T05:41:37;14.07;;;8.35;;
23080;SDS011;11708;50.570;8.532;2023-03-19T05:44:03;12.52;;;8.60;;
23080;SDS011;11708;50.570;8.532;2023-03-19T05:46:29;14.07;;;8.90;;
23080;SDS011;11708;50.570;8.532;2023-03-19T05:48:54;14.63;;;9.57;;
23080;SDS011;11708;50.570;8.532;2023-03-19T05:51:20;12.85;;;8.65;;
23080;SDS011;11708;50.570;8.532;2023-03-19T05:53:45;16.52;;;9.57;;
23080;SDS011;11708;50.570;8.532;2023-03-19T05:56:11;14.90;;;8.68;;
23080;SDS011;11708;50.570;8.532;2023-03-19T05:58:37;15.55;;;9.57;;
23080;SDS011;11708;50.570;8.532;2023-03-19T06:01:03;15.90;;;9.98;;
23080;SDS011;11708;50.570;8.532;2023-03-19T06:03:28;12.82;;;8.43;;
23080;SDS011;11708;50.570;8.532;2023-03-19T06:05:55;13.25;;;8.52;;
23080;SDS011;11708;50.570;8.532;2023-03-19T06:08:21;11.15;;;8.68;;
23080;SDS011;11708;50.570;8.532;2023-03-19T06:10:47;13.40;;;8.32;;
23080;SDS011;11708;50.570;8.532;2023-03-19T06:13:13;11.18;;;8.25;;
23080;SDS011;11708;50.570;8.532;2023-03-19T06:15:38;13.80;;;9.02;;
23080;SDS011;11708;50.570;8.532;2023-03-19T06:18:04;14.63;;;8.30;;
23080;SDS011;11708;50.570;8.532;2023-03-19T06:20:30;13.20;;;8.88;;
23080;SDS011;11708;50.570;8.532;2023-03-19T06:22:56;13.82;;;8.65;;
23080;SDS011;11708;50.570;8.532;2023-03-19T06:25:22;13.82;;;8.32;;
23080;SDS011;11708;50.570;8.532;2023-03-19T06:27:47;14.82;;;7.85;;
23080;SDS011;11708;50.570;8.532;2023-03-19T06:30:14;12.55;;;8.30;;
23080;SDS011;11708;50.570;8.532;2023-03-19T06:32:40;12.55;;;8.55;;
23080;SDS011;11708;50.570;8.532;2023-03-19T06:35:07;14.95;;;9.93;;
23080;SDS011;11708;50.570;8.532;2023-03-19T06:37:33;15.15;;;9.05;;
23080;SDS011;11708;50.570;8.532;2023-03-19T06:39:59;15.18;;;9.95;;
23080;SDS011;11708;50.570;8.532;2023-03-19T06:42:24;14.02;;;8.77;;
23080;SDS011;11708;50.570;8.532;2023-03-19T06:44:51;12.70;;;8.93;;
23080;SDS011;11708;50.570;8.532;2023-03-19T06:47:16;13.93;;;9.68;;
23080;SDS011;11708;50.570;8.532;2023-03-19T06:49:43;12.80;;;8.43;;
23080;SDS011;11708;50.570;8.532;2023-03-19T06:52:09;13.20;;;9.30;;
23080;SDS011;11708;50.570;8.532;2023-03-19T06:54:35;14.75;;;8.90;;
23080;SDS011;11708;50.570;8.532;2023-03-19T06:57:01;16.42;;;9.98;;
23080;SDS011;11708;50.570;8.532;2023-03-19T06:59:26;14.60;;;10.30;;
23080;SDS011;11708;50.570;8.532;2023-03-19T07:01:52;28.50;;;18.45;;
23080;SDS011;11708;50.570;8.532;2023-03-19T07:04:17;30.98;;;17.85;;
23080;SDS011;11708;50.570;8.532;2023-03-19T07:06:43;25.15;;;14.57;;
23080;SDS011;11708;50.570;8.532;2023-03-19T07:09:09;17.30;;;11.68;;
23080;SDS011;11708;50.570;8.532;2023-03-19T07:11:35;17.38;;;10.73;;
23080;SDS011;11708;50.570;8.532;2023-03-19T07:14:01;18.67;;;11.65;;
23080;SDS011;11708;50.570;8.532;2023-03-19T07:16:27;16.85;;;11.50;;
23080;SDS011;11708;50.570;8.532;2023-03-19T07:18:53;17.45;;;12.10;;
23080;SDS011;11708;50.570;8.532;2023-03-19T07:21:20;17.38;;;11.85;;
23080;SDS011;11708;50.570;8.532;2023-03-19T07:23:46;17.98;;;11.18;;
23080;SDS011;11708;50.570;8.532;2023-03-19T07:26:13;31.20;;;17.75;;
23080;SDS011;11708;50.570;8.532;2023-03-19T07:28:38;30.88;;;18.70;;
23080;SDS011;11708;50.570;8.532;2023-03-19T07:31:04;20.25;;;13.02;;
23080;SDS011;11708;50.570;8.532;2023-03-19T07:33:31;20.33;;;13.40;;
23080;SDS011;11708;50.570;8.532;2023-03-19T07:35:56;18.65;;;11.95;;
23080;SDS011;11708;50.570;8.532;2023-03-19T07:38:22;15.00;;;11.00;;
23080;SDS011;11708;50.570;8.532;2023-03-19T07:40:48;14.35;;;10.80;;
23080;SDS011;11708;50.570;8.532;2023-03-19T07:43:16;15.55;;;10.57;;
23080;SDS011;11708;50.570;8.532;2023-03-19T07:45:41;16.63;;;10.27;;
23080;SDS011;11708;50.570;8.532;2023-03-19T07:48:07;16.08;;;9.90;;
23080;SDS011;11708;50.570;8.532;2023-03-19T07:50:33;15.27;;;10.05;;
23080;SDS011;11708;50.570;8.532;2023-03-19T07:52:58;11.93;;;9.80;;
23080;SDS011;11708;50.570;8.532;2023-03-19T07:55:24;19.20;;;11.80;;
23080;SDS011;11708;50.570;8.532;2023-03-19T07:57:50;12.82;;;9.38;;
23080;SDS011;11708;50.570;8.532;2023-03-19T08:00:15;16.10;;;10.40;;
23080;SDS011;11708;50.570;8.532;2023-03-19T08:02:42;16.33;;;10.15;;
23080;SDS011;11708;50.570;8.532;2023-03-19T08:05:08;14.02;;;11.02;;
23080;SDS011;11708;50.570;8.532;2023-03-19T08:07:34;19.45;;;11.85;;
23080;SDS011;11708;50.570;8.532;2023-03-19T08:10:01;16.40;;;10.45;;
23080;SDS011;11708;50.570;8.532;2023-03-19T08:12:28;14.95;;;10.75;;
23080;SDS011;11708;50.570;8.532;2023-03-19T08:14:53;15.10;;;10.77;;
23080;SDS011;11708;50.570;8.532;2023-03-19T08:17:19;16.63;;;11.85;;
23080;SDS011;11708;50.570;8.532;2023-03-19T08:19:45;14.75;;;10.98;;
23080;SDS011;11708;50.570;8.532;2023-03-19T08:22:11;15.75;;;10.35;;
23080;SDS011;11708;50.570;8.532;2023-03-19T08:24:37;13.82;;;10.10;;
23080;SDS011;11708;50.570;8.532;2023-03-19T08:27:03;19.13;;;10.38;;
23080;SDS011;11708;50.570;8.532;2023-03-19T08:29:28;15.00;;;9.95;;
23080;SDS011;11708;50.570;8.532;2023-03-19T08:31:54;16.23;;;10.65;;
23080;SDS011;11708;50.570;8.532;2023-03-19T08:34:21;14.75;;;9.93;;
23080;SDS011;11708;50.570;8.532;2023-03-19T08:36:47;14.45;;;10.15;;
23080;SDS011;11708;50.570;8.532;2023-03-19T08:39:13;28.90;;;20.35;;
23080;SDS011;11708;50.570;8.532;2023-03-19T08:41:38;36.75;;;23.13;;
23080;SDS011;11708;50.570;8.532;2023-03-19T08:44:04;21.10;;;14.38;;
23080;SDS011;11708;50.570;8.532;2023-03-19T08:46:30;17.23;;;11.63;;
23080;SDS011;11708;50.570;8.532;2023-03-19T08:48:56;14.82;;;10.93;;
23080;SDS011;11708;50.570;8.532;2023-03-19T08:51:21;13.65;;;10.57;;
23080;SDS011;11708;50.570;8.532;2023-03-19T08:53:50;17.35;;;10.80;;
23080;SDS011;11708;50.570;8.532;2023-03-19T08:56:15;17.45;;;11.82;;
23080;SDS011;11708;50.570;8.532;2023-03-19T08:58:44;18.08;;;11.68;;
23080;SDS011;11708;50.570;8.532;2023-03-19T09:01:10;22.13;;;10.70;;
23080;SDS011;11708;50.570;8.532;2023-03-19T09:03:38;14.13;;;10.68;;
23080;SDS011;11708;50.570;8.532;2023-03-19T09:06:06;16.13;;;11.15;;
23080;SDS011;11708;50.570;8.532;2023-03-19T09:08:34;14.60;;;10.13;;
23080;SDS011;11708;50.570;8.532;2023-03-19T09:11:01;15.57;;;10.77;;
23080;SDS011;11708;50.570;8.532;2023-03-19T09:13:28;16.65;;;11.07;;
23080;SDS011;11708;50.570;8.532;2023-03-19T09:15:54;14.55;;;10.98;;
23080;SDS011;11708;50.570;8.532;2023-03-19T09:18:20;16.58;;;11.82;;
23080;SDS011;11708;50.570;8.532;2023-03-19T09:20:48;15.52;;;11.40;;
23080;SDS011;11708;50.570;8.532;2023-03-19T09:23:13;14.02;;;10.95;;
23080;SDS011;11708;50.570;8.532;2023-03-19T09:25:39;16.92;;;11.30;;
23080;SDS011;11708;50.570;8.532;2023-03-19T09:28:05;16.27;;;11.25;;
23080;SDS011;11708;50.570;8.532;2023-03-19T09:30:30;17.00;;;11.60;;
23080;SDS011;11708;50.570;8.532;2023-03-19T09:32:56;15.35;;;11.40;;
23080;SDS011;11708;50.570;8.532;2023-03-19T09:35:22;18.27;;;11.85;;
23080;SDS011;11708;50.570;8.532;2023-03-19T09:37:49;14.32;;;11.07;;
23080;SDS011;11708;50.570;8.532;2023-03-19T09:40:25;17.15;;;11.77;;
23080;SDS011;11708;50.570;8.532;2023-03-19T09:46:10;14.82;;;10.90;;
23080;SDS011;11708;50.570;8.532;2023-03-19T09:48:50;14.13;;;11.05;;
23080;SDS011;11708;50.570;8.532;2023-03-19T09:51:43;17.02;;;11.05;;
23080;SDS011;11708;50.570;8.532;2023-03-19T09:56:58;12.93;;;11.43;;
23080;SDS011;11708;50.570;8.532;2023-03-19T09:59:25;13.27;;;10.95;;
23080;SDS011;11708;50.570;8.532;2023-03-19T10:02:00;14.00;;;11.25;;
23080;SDS011;11708;50.570;8.532;2023-03-19T10:07:48;13.85;;;10.07;;
23080;SDS011;11708;50.570;8.532;2023-03-19T10:13:08;13.80;;;11.00;;
23080;SDS011;11708;50.570;8.532;2023-03-19T10:15:39;14.50;;;9.80;;
23080;SDS011;11708;50.570;8.532;2023-03-19T10:18:15;13.10;;;10.00;;
23080;SDS011;11708;50.570;8.532;2023-03-19T10:21:26;12.00;;;9.85;;
23080;SDS011;11708;50.570;8.532;2023-03-19T10:24:32;112.35;;;56.60;;
23080;SDS011;11708;50.570;8.532;2023-03-19T10:26:42;50.53;;;28.50;;
23080;SDS011;11708;50.570;8.532;2023-03-19T10:29:10;26.80;;;16.92;;
23080;SDS011;11708;50.570;8.532;2023-03-19T10:31:48;15.18;;;11.20;;
23080;SDS011;11708;50.570;8.532;2023-03-19T10:36:58;14.23;;;9.75;;
23080;SDS011;11708;50.570;8.532;2023-03-19T10:39:25;14.10;;;10.07;;
23080;SDS011;11708;50.570;8.532;2023-03-19T10:41:56;13.27;;;10.00;;
23080;SDS011;11708;50.570;8.532;2023-03-19T10:44:31;12.45;;;9.50;;
23080;SDS011;11708;50.570;8.532;2023-03-19T10:47:08;12.98;;;9.65;;
23080;SDS011;11708;50.570;8.532;2023-03-19T10:49:35;11.50;;;8.68;;
23080;SDS011;11708;50.570;8.532;2023-03-19T10:52:03;12.00;;;8.68;;
23080;SDS011;11708;50.570;8.532;2023-03-19T10:54:29;11.43;;;8.27;;
23080;SDS011;11708;50.570;8.532;2023-03-19T10:56:55;11.38;;;8.02;;
23080;SDS011;11708;50.570;8.532;2023-03-19T10:59:24;11.55;;;7.45;;
23080;SDS011;11708;50.570;8.532;2023-03-19T11:01:56;9.82;;;7.05;;
23080;SDS011;11708;50.570;8.532;2023-03-19T11:04:43;8.38;;;6.95;;
23080;SDS011;11708;50.570;8.532;2023-03-19T11:07:12;7.93;;;6.28;;
23080;SDS011;11708;50.570;8.532;2023-03-19T11:09:39;9.00;;;6.70;;
23080;SDS011;11708;50.570;8.532;2023-03-19T11:12:21;9.32;;;5.68;;
23080;SDS011;11708;50.570;8.532;2023-03-19T11:14:52;8.63;;;5.55;;
23080;SDS011;11708;50.570;8.532;2023-03-19T11:17:25;9.07;;;5.63;;
23080;SDS011;11708;50.570;8.532;2023-03-19T11:23:12;7.10;;;5.75;;
23080;SDS011;11708;50.570;8.532;2023-03-19T11:25:42;8.52;;;5.88;;
23080;SDS011;11708;50.570;8.532;2023-03-19T11:28:18;8.20;;;6.03;;
23080;SDS011;11708;50.570;8.532;2023-03-19T11:31:01;8.57;;;6.07;;
23080;SDS011;11708;50.570;8.532;2023-03-19T11:33:36;7.75;;;5.18;;
23080;SDS011;11708;50.570;8.532;2023-03-19T11:36:20;7.03;;;4.32;;
23080;SDS011;11708;50.570;8.532;2023-03-19T11:44:30;5.88;;;3.90;;
23080;SDS011;11708;50.570;8.532;2023-03-19T11:47:17;4.45;;;2.80;;
23080;SDS011;11708;50.570;8.532;2023-03-19T11:55:53;4.35;;;2.70;;
23080;SDS011;11708;50.570;8.532;2023-03-19T12:01:16;2.90;;;2.20;;
23080;SDS011;11708;50.570;8.532;2023-03-19T12:13:14;1.40;;;1.15;;
23080;SDS011;11708;50.570;8.532;2023-03-19T12:24:26;2.00;;;0.95;;
23080;SDS011;11708;50.570;8.532;2023-03-19T12:29:59;3.70;;;1.52;;
23080;SDS011;11708;50.570;8.532;2023-03-19T12:32:49;4.40;;;2.13;;
23080;SDS011;11708;50.570;8.532;2023-03-19T12:35:21;1.92;;;1.20;;
23080;SDS011;11708;50.570;8.532;2023-03-19T12:40:51;2.10;;;1.58;;
23080;SDS011;11708;50.570;8.532;2023-03-19T12:46:30;3.08;;;1.80;;
23080;SDS011;11708;50.570;8.532;2023-03-19T12:49:24;1.85;;;1.20;;
23080;SDS011;11708;50.570;8.532;2023-03-19T12:52:13;2.75;;;1.30;;
23080;SDS011;11708;50.570;8.532;2023-03-19T12:54:55;1.80;;;1.20;;
23080;SDS011;11708;50.570;8.532;2023-03-19T13:00:33;4.78;;;1.80;;
23080;SDS011;11708;50.570;8.532;2023-03-19T13:03:12;2.97;;;1.95;;
23080;SDS011;11708;50.570;8.532;2023-03-19T13:11:46;1.55;;;1.42;;
23080;SDS011;11708;50.570;8.532;2023-03-19T13:14:18;2.03;;;1.60;;
23080;SDS011;11708;50.570;8.532;2023-03-19T13:16:49;3.20;;;1.20;;
23080;SDS011;11708;50.570;8.532;2023-03-19T13:21:52;0.75;;;0.60;;
23080;SDS011;11708;50.570;8.532;2023-03-19T13:26:50;0.85;;;0.55;;
23080;SDS011;11708;50.570;8.532;2023-03-19T13:29:21;1.08;;;0.70;;
23080;SDS011;11708;50.570;8.532;2023-03-19T13:32:01;1.23;;;0.70;;
23080;SDS011;11708;50.570;8.532;2023-03-19T13:34:32;0.50;;;0.50;;
23080;SDS011;11708;50.570;8.532;2023-03-19T13:37:21;0.65;;;0.63;;
23080;SDS011;11708;50.570;8.532;2023-03-19T13:39:47;1.45;;;1.35;;
23080;SDS011;11708;50.570;8.532;2023-03-19T13:45:36;2.22;;;0.90;;
23080;SDS011;11708;50.570;8.532;2023-03-19T13:50:55;1.17;;;0.90;;
23080;SDS011;11708;50.570;8.532;2023-03-19T13:53:36;1.80;;;0.85;;
23080;SDS011;11708;50.570;8.532;2023-03-19T13:56:10;1.60;;;0.73;;
23080;SDS011;11708;50.570;8.532;2023-03-19T13:58:43;1.70;;;0.85;;
23080;SDS011;11708;50.570;8.532;2023-03-19T14:03:55;2.00;;;0.77;;
23080;SDS011;11708;50.570;8.532;2023-03-19T14:08:56;1.60;;;0.88;;
23080;SDS011;11708;50.570;8.532;2023-03-19T14:11:23;2.67;;;0.73;;
23080;SDS011;11708;50.570;8.532;2023-03-19T14:13:52;0.70;;;0.70;;
23080;SDS011;11708;50.570;8.532;2023-03-19T14:16:23;1.00;;;0.70;;
23080;SDS011;11708;50.570;8.532;2023-03-19T14:18:57;0.90;;;0.77;;
23080;SDS011;11708;50.570;8.532;2023-03-19T14:26:56;1.17;;;0.90;;
23080;SDS011;11708;50.570;8.532;2023-03-19T14:29:27;1.50;;;0.70;;
23080;SDS011;11708;50.570;8.532;2023-03-19T14:31:58;1.05;;;0.68;;
23080;SDS011;11708;50.570;8.532;2023-03-19T14:34:40;0.70;;;0.50;;
23080;SDS011;11708;50.570;8.532;2023-03-19T14:39:45;1.00;;;0.68;;
23080;SDS011;11708;50.570;8.532;2023-03-19T14:42:22;0.80;;;0.60;;
23080;SDS011;11708;50.570;8.532;2023-03-19T14:45:16;1.02;;;0.77;;
23080;SDS011;11708;50.570;8.532;2023-03-19T14:47:56;0.90;;;0.60;;
23080;SDS011;11708;50.570;8.532;2023-03-19T14:50:36;0.90;;;0.75;;
23080;SDS011;11708;50.570;8.532;2023-03-19T14:53:24;1.13;;;0.80;;
23080;SDS011;11708;50.570;8.532;2023-03-19T14:56:14;1.05;;;0.68;;
23080;SDS011;11708;50.570;8.532;2023-03-19T14:58:52;1.05;;;0.70;;
23080;SDS011;11708;50.570;8.532;2023-03-19T15:01:20;1.00;;;0.70;;
23080;SDS011;11708;50.570;8.532;2023-03-19T15:03:52;0.80;;;0.73;;
23080;SDS011;11708;50.570;8.532;2023-03-19T15:06:32;1.30;;;0.80;;
23080;SDS011;11708;50.570;8.532;2023-03-19T15:09:04;0.70;;;0.70;;
23080;SDS011;11708;50.570;8.532;2023-03-19T15:19:46;0.93;;;0.75;;
23080;SDS011;11708;50.570;8.532;2023-03-19T15:22:13;1.60;;;0.70;;
23080;SDS011;11708;50.570;8.532;2023-03-19T15:24:43;1.67;;;0.80;;
23080;SDS011;11708;50.570;8.532;2023-03-19T15:27:24;0.70;;;0.70;;
23080;SDS011;11708;50.570;8.532;2023-03-19T15:29:51;0.75;;;0.60;;
23080;SDS011;11708;50.570;8.532;2023-03-19T15:32:34;1.60;;;0.70;;
23080;SDS011;11708;50.570;8.532;2023-03-19T15:35:01;1.35;;;1.00;;
23080;SDS011;11708;50.570;8.532;2023-03-19T15:37:27;0.82;;;0.70;;
23080;SDS011;11708;50.570;8.532;2023-03-19T15:39:55;2.10;;;0.60;;
23080;SDS011;11708;50.570;8.532;2023-03-19T15:42:23;1.17;;;0.85;;
23080;SDS011;11708;50.570;8.532;2023-03-19T15:44:51;1.40;;;0.90;;
23080;SDS011;11708;50.570;8.532;2023-03-19T15:47:23;0.80;;;0.80;;
23080;SDS011;11708;50.570;8.532;2023-03-19T15:49:55;1.13;;;0.70;;
23080;SDS011;11708;50.570;8.532;2023-03-19T15:52:25;1.00;;;0.90;;
23080;SDS011;11708;50.570;8.532;2023-03-19T15:54:54;1.10;;;0.90;;
23080;SDS011;11708;50.570;8.532;2023-03-19T15:57:20;1.25;;;0.85;;
23080;SDS011;11708;50.570;8.532;2023-03-19T15:59:50;1.17;;;0.80;;
23080;SDS011;11708;50.570;8.532;2023-03-19T16:02:23;1.25;;;0.80;;
23080;SDS011;11708;50.570;8.532;2023-03-19T16:04:52;3.83;;;1.00;;
23080;SDS011;11708;50.570;8.532;2023-03-19T16:07:20;3.38;;;1.00;;
23080;SDS011;11708;50.570;8.532;2023-03-19T16:09:50;2.65;;;0.90;;
23080;SDS011;11708;50.570;8.532;2023-03-19T16:12:29;1.67;;;1.25;;
23080;SDS011;11708;50.570;8.532;2023-03-19T16:21:24;1.27;;;0.90;;
23080;SDS011;11708;50.570;8.532;2023-03-19T16:23:37;1.15;;;0.90;;
23080;SDS011;11708;50.570;8.532;2023-03-19T16:26:23;1.35;;;0.88;;
23080;SDS011;11708;50.570;8.532;2023-03-19T16:29:23;1.58;;;1.00;;
23080;SDS011;11708;50.570;8.532;2023-03-19T16:32:02;0.70;;;0.70;;
23080;SDS011;11708;50.570;8.532;2023-03-19T16:34:46;1.45;;;0.90;;
23080;SDS011;11708;50.570;8.532;2023-03-19T16:37:23;1.50;;;0.90;;
23080;SDS011;11708;50.570;8.532;2023-03-19T16:39:58;1.50;;;0.88;;